sensor_id;sensor_type;location;lat;lon;timestamp;pressure;altitude;pressure_sealevel;temperature
78905;BMP280;68291;49.602;8.722;2023-07-31T00:01:46;99462.03;;;21.35
78905;BMP280;68291;49.602;8.722;2023-07-31T00:04:43;99461.66;;;21.40
78905;BMP280;68291;49.602;8.722;2023-07-31T00:07:24;99459.16;;;21.48
78905;BMP280;68291;49.602;8.722;2023-07-31T00:10:09;99453.34;;;21.54
78905;BMP280;68291;49.602;8.722;2023-07-31T00:12:55;99449.38;;;21.59
78905;BMP280;68291;49.602;8.722;2023-07-31T00:15:32;99449.06;;;21.62
78905;BMP280;68291;49.602;8.722;2023-07-31T00:18:24;99450.19;;;21.60
78905;BMP280;68291;49.602;8.722;2023-07-31T00:20:56;99441.38;;;21.61
78905;BMP280;68291;49.602;8.722;2023-07-31T00:23:48;99448.25;;;21.62
78905;BMP280;68291;49.602;8.722;2023-07-31T00:26:28;99440.09;;;21.64
78905;BMP280;68291;49.602;8.722;2023-07-31T00:29:24;99441.47;;;21.68
78905;BMP280;68291;49.602;8.722;2023-07-31T00:32:15;99440.25;;;21.72
78905;BMP280;68291;49.602;8.722;2023-07-31T00:35:08;99429.47;;;21.75
78905;BMP280;68291;49.602;8.722;2023-07-31T00:37:43;99433.63;;;21.78
78905;BMP280;68291;49.602;8.722;2023-07-31T00:40:21;99429.72;;;21.82
78905;BMP280;68291;49.602;8.722;2023-07-31T00:42:53;99440.78;;;21.85
78905;BMP280;68291;49.602;8.722;2023-07-31T00:45:39;99430.16;;;21.87
78905;BMP280;68291;49.602;8.722;2023-07-31T00:48:14;99430.69;;;21.90
78905;BMP280;68291;49.602;8.722;2023-07-31T00:50:55;99430.69;;;21.90
78905;BMP280;68291;49.602;8.722;2023-07-31T00:53:39;99419.50;;;21.88
78905;BMP280;68291;49.602;8.722;2023-07-31T00:56:14;99416.75;;;21.90
78905;BMP280;68291;49.602;8.722;2023-07-31T00:58:49;99416.31;;;21.94
78905;BMP280;68291;49.602;8.722;2023-07-31T01:01:46;99426.81;;;21.94
78905;BMP280;68291;49.602;8.722;2023-07-31T01:04:43;99410.13;;;21.95
78905;BMP280;68291;49.602;8.722;2023-07-31T01:07:45;99416.06;;;21.97
78905;BMP280;68291;49.602;8.722;2023-07-31T01:10:44;99408.84;;;21.99
78905;BMP280;68291;49.602;8.722;2023-07-31T01:13:31;99405.13;;;22.01
78905;BMP280;68291;49.602;8.722;2023-07-31T01:16:09;99405.66;;;22.05
78905;BMP280;68291;49.602;8.722;2023-07-31T01:18:54;99399.47;;;22.06
78905;BMP280;68291;49.602;8.722;2023-07-31T01:22:12;99400.41;;;22.05
78905;BMP280;68291;49.602;8.722;2023-07-31T01:25:19;99401.66;;;22.01
78905;BMP280;68291;49.602;8.722;2023-07-31T01:28:05;99399.03;;;22.01
78905;BMP280;68291;49.602;8.722;2023-07-31T01:30:59;99404.59;;;21.98
78905;BMP280;68291;49.602;8.722;2023-07-31T01:33:36;99406.66;;;21.95
78905;BMP280;68291;49.602;8.722;2023-07-31T01:36:10;99403.22;;;21.94
78905;BMP280;68291;49.602;8.722;2023-07-31T01:38:45;99408.19;;;21.97
78905;BMP280;68291;49.602;8.722;2023-07-31T01:41:18;99399.47;;;21.97
78905;BMP280;68291;49.602;8.722;2023-07-31T01:44:15;99403.22;;;21.94
78905;BMP280;68291;49.602;8.722;2023-07-31T01:47:09;99396.31;;;21.93
78905;BMP280;68291;49.602;8.722;2023-07-31T01:50:06;99399.91;;;21.92
78905;BMP280;68291;49.602;8.722;2023-07-31T01:52:45;99386.09;;;21.90
78905;BMP280;68291;49.602;8.722;2023-07-31T01:55:36;99401.56;;;21.93
78905;BMP280;68291;49.602;8.722;2023-07-31T01:58:41;99395.34;;;21.94
78905;BMP280;68291;49.602;8.722;2023-07-31T02:01:32;99377.28;;;21.82
78905;BMP280;68291;49.602;8.722;2023-07-31T02:04:04;99390.28;;;21.83
78905;BMP280;68291;49.602;8.722;2023-07-31T02:06:50;99386.16;;;21.81
78905;BMP280;68291;49.602;8.722;2023-07-31T02:09:41;99378.28;;;21.81
78905;BMP280;68291;49.602;8.722;2023-07-31T02:12:24;99377.28;;;21.82
78905;BMP280;68291;49.602;8.722;2023-07-31T02:15:09;99372.91;;;21.82
78905;BMP280;68291;49.602;8.722;2023-07-31T02:18:32;99370.41;;;21.81
78905;BMP280;68291;49.602;8.722;2023-07-31T02:21:08;99362.41;;;21.82
78905;BMP280;68291;49.602;8.722;2023-07-31T02:23:51;99360.75;;;21.81
78905;BMP280;68291;49.602;8.722;2023-07-31T02:26:31;99361.56;;;21.82
78905;BMP280;68291;49.602;8.722;2023-07-31T02:29:09;99351.25;;;21.80
78905;BMP280;68291;49.602;8.722;2023-07-31T02:31:41;99363.53;;;21.80
78905;BMP280;68291;49.602;8.722;2023-07-31T02:34:19;99363.66;;;21.78
78905;BMP280;68291;49.602;8.722;2023-07-31T02:37:05;99366.56;;;21.75
78905;BMP280;68291;49.602;8.722;2023-07-31T02:39:45;99368.78;;;21.70
78905;BMP280;68291;49.602;8.722;2023-07-31T02:42:16;99370.72;;;21.68
78905;BMP280;68291;49.602;8.722;2023-07-31T02:44:48;99363.53;;;21.70
78905;BMP280;68291;49.602;8.722;2023-07-31T02:47:23;99368.09;;;21.68
78905;BMP280;68291;49.602;8.722;2023-07-31T02:50:24;99366.59;;;21.66
78905;BMP280;68291;49.602;8.722;2023-07-31T02:53:31;99355.28;;;21.65
78905;BMP280;68291;49.602;8.722;2023-07-31T02:56:17;99353.22;;;21.60
78905;BMP280;68291;49.602;8.722;2023-07-31T02:59:01;99355.03;;;21.59
78905;BMP280;68291;49.602;8.722;2023-07-31T03:01:34;99355.31;;;21.56
78905;BMP280;68291;49.602;8.722;2023-07-31T03:04:22;99359.56;;;21.57
78905;BMP280;68291;49.602;8.722;2023-07-31T03:06:58;99358.06;;;21.55
78905;BMP280;68291;49.602;8.722;2023-07-31T03:09:38;99362.63;;;21.53
78905;BMP280;68291;49.602;8.722;2023-07-31T03:12:17;99361.94;;;21.51
78905;BMP280;68291;49.602;8.722;2023-07-31T03:14:49;99355.06;;;21.50
78905;BMP280;68291;49.602;8.722;2023-07-31T03:17:20;99350.63;;;21.50
78905;BMP280;68291;49.602;8.722;2023-07-31T03:19:51;99353.09;;;21.52
78905;BMP280;68291;49.602;8.722;2023-07-31T03:23:05;99352.81;;;21.45
78905;BMP280;68291;49.602;8.722;2023-07-31T03:26:01;99354.22;;;21.40
78905;BMP280;68291;49.602;8.722;2023-07-31T03:28:52;99356.69;;;21.32
78905;BMP280;68291;49.602;8.722;2023-07-31T03:31:48;99356.97;;;21.29
78905;BMP280;68291;49.602;8.722;2023-07-31T03:34:33;99348.97;;;21.30
78905;BMP280;68291;49.602;8.722;2023-07-31T03:37:13;99350.06;;;21.28
78905;BMP280;68291;49.602;8.722;2023-07-31T03:40:10;99352.28;;;21.23
78905;BMP280;68291;49.602;8.722;2023-07-31T03:43:07;99346.50;;;21.20
78905;BMP280;68291;49.602;8.722;2023-07-31T03:45:48;99354.06;;;21.23
78905;BMP280;68291;49.602;8.722;2023-07-31T03:48:39;99346.66;;;21.18
78905;BMP280;68291;49.602;8.722;2023-07-31T03:51:29;99351.31;;;21.15
78905;BMP280;68291;49.602;8.722;2023-07-31T03:54:03;99344.56;;;21.12
78905;BMP280;68291;49.602;8.722;2023-07-31T03:57:06;99341.56;;;21.07
78905;BMP280;68291;49.602;8.722;2023-07-31T03:59:53;99337.94;;;21.08
78905;BMP280;68291;49.602;8.722;2023-07-31T04:02:53;99334.38;;;21.09
78905;BMP280;68291;49.602;8.722;2023-07-31T04:05:33;99346.50;;;21.10
78905;BMP280;68291;49.602;8.722;2023-07-31T04:08:05;99341.25;;;21.10
78905;BMP280;68291;49.602;8.722;2023-07-31T04:10:48;99343.19;;;21.08
78905;BMP280;68291;49.602;8.722;2023-07-31T04:13:30;99333.53;;;21.09
78905;BMP280;68291;49.602;8.722;2023-07-31T04:16:08;99348.88;;;21.13
78905;BMP280;68291;49.602;8.722;2023-07-31T04:19:04;99351.47;;;21.13
78905;BMP280;68291;49.602;8.722;2023-07-31T04:21:51;99355.03;;;21.12
78905;BMP280;68291;49.602;8.722;2023-07-31T04:24:34;99362.22;;;21.10
78905;BMP280;68291;49.602;8.722;2023-07-31T04:27:09;99353.66;;;21.08
78905;BMP280;68291;49.602;8.722;2023-07-31T04:30:33;99355.59;;;21.06
78905;BMP280;68291;49.602;8.722;2023-07-31T04:33:30;99345.81;;;21.08
78905;BMP280;68291;49.602;8.722;2023-07-31T04:36:26;99340.31;;;21.11
78905;BMP280;68291;49.602;8.722;2023-07-31T04:39:10;99347.59;;;21.17
78905;BMP280;68291;49.602;8.722;2023-07-31T04:41:54;99333.53;;;21.18
78905;BMP280;68291;49.602;8.722;2023-07-31T04:44:25;99336.03;;;21.20
78905;BMP280;68291;49.602;8.722;2023-07-31T04:47:29;99331.88;;;21.17
78905;BMP280;68291;49.602;8.722;2023-07-31T04:50:18;99341.81;;;21.14
78905;BMP280;68291;49.602;8.722;2023-07-31T04:53:04;99341.00;;;21.13
78905;BMP280;68291;49.602;8.722;2023-07-31T04:55:51;99338.09;;;21.16
78905;BMP280;68291;49.602;8.722;2023-07-31T04:58:22;99335.88;;;21.21
78905;BMP280;68291;49.602;8.722;2023-07-31T05:01:18;99332.31;;;21.22
78905;BMP280;68291;49.602;8.722;2023-07-31T05:04:52;99330.38;;;21.24
78905;BMP280;68291;49.602;8.722;2023-07-31T05:07:49;99326.38;;;21.20
78905;BMP280;68291;49.602;8.722;2023-07-31T05:10:26;99331.31;;;21.23
78905;BMP280;68291;49.602;8.722;2023-07-31T05:13:09;99329.41;;;21.25
78905;BMP280;68291;49.602;8.722;2023-07-31T05:15:42;99337.94;;;21.27
78905;BMP280;68291;49.602;8.722;2023-07-31T05:18:23;99333.69;;;21.26
78905;BMP280;68291;49.602;8.722;2023-07-31T05:21:32;99333.25;;;21.21
78905;BMP280;68291;49.602;8.722;2023-07-31T05:24:30;99326.63;;;21.17
78905;BMP280;68291;49.602;8.722;2023-07-31T05:27:10;99323.75;;;21.20
78905;BMP280;68291;49.602;8.722;2023-07-31T05:29:58;99323.88;;;21.19
78905;BMP280;68291;49.602;8.722;2023-07-31T05:32:43;99329.25;;;21.17
78905;BMP280;68291;49.602;8.722;2023-07-31T05:35:17;99323.06;;;21.18
78905;BMP280;68291;49.602;8.722;2023-07-31T05:38:10;99333.94;;;21.23
78905;BMP280;68291;49.602;8.722;2023-07-31T05:40:43;99326.09;;;21.23
78905;BMP280;68291;49.602;8.722;2023-07-31T05:43:38;99324.44;;;21.22
78905;BMP280;68291;49.602;8.722;2023-07-31T05:46:34;99326.09;;;21.23
78905;BMP280;68291;49.602;8.722;2023-07-31T05:49:31;99321.41;;;21.27
78905;BMP280;68291;49.602;8.722;2023-07-31T05:52:22;99326.50;;;21.28
78905;BMP280;68291;49.602;8.722;2023-07-31T05:55:20;99330.50;;;21.32
78905;BMP280;68291;49.602;8.722;2023-07-31T05:58:05;99328.16;;;21.38
78905;BMP280;68291;49.602;8.722;2023-07-31T06:00:48;99320.56;;;21.45
78905;BMP280;68291;49.602;8.722;2023-07-31T06:03:26;99322.06;;;21.47
78905;BMP280;68291;49.602;8.722;2023-07-31T06:06:04;99313.41;;;21.47
78905;BMP280;68291;49.602;8.722;2023-07-31T06:08:42;99314.47;;;21.54
78905;BMP280;68291;49.602;8.722;2023-07-31T06:11:34;99313.41;;;21.56
78905;BMP280;68291;49.602;8.722;2023-07-31T06:14:27;99321.63;;;21.61
78905;BMP280;68291;49.602;8.722;2023-07-31T06:17:18;99306.19;;;21.58
78905;BMP280;68291;49.602;8.722;2023-07-31T06:20:13;99307.84;;;21.59
78905;BMP280;68291;49.602;8.722;2023-07-31T06:22:54;99308.25;;;21.64
78905;BMP280;68291;49.602;8.722;2023-07-31T06:25:45;99308.94;;;21.66
78905;BMP280;68291;49.602;8.722;2023-07-31T06:28:37;99312.09;;;21.69
78905;BMP280;68291;49.602;8.722;2023-07-31T06:31:29;99309.88;;;21.74
78905;BMP280;68291;49.602;8.722;2023-07-31T06:34:04;99303.38;;;21.78
78905;BMP280;68291;49.602;8.722;2023-07-31T06:36:35;99312.19;;;21.87
78905;BMP280;68291;49.602;8.722;2023-07-31T06:39:16;99313.50;;;22.00
78905;BMP280;68291;49.602;8.722;2023-07-31T06:41:46;99296.06;;;22.08
78905;BMP280;68291;49.602;8.722;2023-07-31T06:44:28;99304.31;;;22.23
78905;BMP280;68291;49.602;8.722;2023-07-31T06:47:03;99301.19;;;22.36
78905;BMP280;68291;49.602;8.722;2023-07-31T06:49:52;99302.38;;;22.42
78905;BMP280;68291;49.602;8.722;2023-07-31T06:52:33;99298.66;;;22.44
78905;BMP280;68291;49.602;8.722;2023-07-31T06:55:18;99300.59;;;22.42
78905;BMP280;68291;49.602;8.722;2023-07-31T06:57:54;99310.53;;;22.39
78905;BMP280;68291;49.602;8.722;2023-07-31T07:00:33;99314.28;;;22.36
78905;BMP280;68291;49.602;8.722;2023-07-31T07:03:09;99308.75;;;22.39
78905;BMP280;68291;49.602;8.722;2023-07-31T07:05:49;99307.78;;;22.40
78905;BMP280;68291;49.602;8.722;2023-07-31T07:08:44;99307.78;;;22.40
78905;BMP280;68291;49.602;8.722;2023-07-31T07:11:32;99320.38;;;22.37
78905;BMP280;68291;49.602;8.722;2023-07-31T07:14:14;99299.81;;;22.33
78905;BMP280;68291;49.602;8.722;2023-07-31T07:17:35;99308.25;;;22.27
78905;BMP280;68291;49.602;8.722;2023-07-31T07:20:13;99304.50;;;22.29
78905;BMP280;68291;49.602;8.722;2023-07-31T07:23:01;99306.06;;;22.32
78905;BMP280;68291;49.602;8.722;2023-07-31T07:25:41;99298.94;;;22.41
78905;BMP280;68291;49.602;8.722;2023-07-31T07:28:30;99292.28;;;22.47
78905;BMP280;68291;49.602;8.722;2023-07-31T07:31:19;99299.13;;;22.57
78905;BMP280;68291;49.602;8.722;2023-07-31T07:34:36;99299.03;;;22.67
78905;BMP280;68291;49.602;8.722;2023-07-31T07:37:11;99299.25;;;22.73
78905;BMP280;68291;49.602;8.722;2023-07-31T07:39:57;99284.88;;;22.77
78905;BMP280;68291;49.602;8.722;2023-07-31T07:42:29;99302.22;;;22.87
78905;BMP280;68291;49.602;8.722;2023-07-31T07:45:03;99298.47;;;22.90
78905;BMP280;68291;49.602;8.722;2023-07-31T07:47:52;99299.81;;;22.94
78905;BMP280;68291;49.602;8.722;2023-07-31T07:50:32;99297.56;;;22.99
78905;BMP280;68291;49.602;8.722;2023-07-31T07:53:20;99297.63;;;23.06
78905;BMP280;68291;49.602;8.722;2023-07-31T07:56:09;99300.97;;;23.16
78905;BMP280;68291;49.602;8.722;2023-07-31T07:59:03;99288.88;;;23.23
78905;BMP280;68291;49.602;8.722;2023-07-31T08:01:57;99288.59;;;23.26
78905;BMP280;68291;49.602;8.722;2023-07-31T08:04:53;99285.19;;;23.34
78905;BMP280;68291;49.602;8.722;2023-07-31T08:07:42;99276.47;;;23.33
78905;BMP280;68291;49.602;8.722;2023-07-31T08:10:14;99277.97;;;23.36
78905;BMP280;68291;49.602;8.722;2023-07-31T08:12:52;99287.66;;;23.35
78905;BMP280;68291;49.602;8.722;2023-07-31T08:15:35;99267.31;;;23.37
78905;BMP280;68291;49.602;8.722;2023-07-31T08:18:07;99273.25;;;23.39
78905;BMP280;68291;49.602;8.722;2023-07-31T08:20:39;99266.53;;;23.44
78905;BMP280;68291;49.602;8.722;2023-07-31T08:23:36;99270.59;;;23.56
78905;BMP280;68291;49.602;8.722;2023-07-31T08:26:20;99261.09;;;23.63
78905;BMP280;68291;49.602;8.722;2023-07-31T08:29:19;99252.22;;;23.64
78905;BMP280;68291;49.602;8.722;2023-07-31T08:32:19;99224.16;;;23.72
78905;BMP280;68291;49.602;8.722;2023-07-31T08:35:10;99241.78;;;23.80
78905;BMP280;68291;49.602;8.722;2023-07-31T08:37:52;99240.94;;;23.79
78905;BMP280;68291;49.602;8.722;2023-07-31T08:40:41;99235.53;;;23.81
78905;BMP280;68291;49.602;8.722;2023-07-31T08:43:14;99239.34;;;23.86
78905;BMP280;68291;49.602;8.722;2023-07-31T08:46:05;99214.22;;;23.92
78905;BMP280;68291;49.602;8.722;2023-07-31T08:48:47;99213.91;;;23.95
78905;BMP280;68291;49.602;8.722;2023-07-31T08:51:27;99215.72;;;24.02
78905;BMP280;68291;49.602;8.722;2023-07-31T08:54:23;99208.84;;;24.09
78905;BMP280;68291;49.602;8.722;2023-07-31T08:57:21;99205.56;;;24.15
78905;BMP280;68291;49.602;8.722;2023-07-31T09:00:13;99208.75;;;24.26
78905;BMP280;68291;49.602;8.722;2023-07-31T09:03:00;99204.16;;;24.36
78905;BMP280;68291;49.602;8.722;2023-07-31T09:05:51;99201.19;;;24.39
78905;BMP280;68291;49.602;8.722;2023-07-31T09:08:42;99203.69;;;24.41
78905;BMP280;68291;49.602;8.722;2023-07-31T09:11:24;99213.88;;;24.36
78905;BMP280;68291;49.602;8.722;2023-07-31T09:14:21;99200.06;;;24.34
78905;BMP280;68291;49.602;8.722;2023-07-31T09:17:06;99200.22;;;24.32
78905;BMP280;68291;49.602;8.722;2023-07-31T09:19:55;99207.75;;;24.35
78905;BMP280;68291;49.602;8.722;2023-07-31T09:22:40;99223.72;;;24.41
78905;BMP280;68291;49.602;8.722;2023-07-31T09:25:26;99204.00;;;24.45
78905;BMP280;68291;49.602;8.722;2023-07-31T09:28:03;99201.03;;;24.56
78905;BMP280;68291;49.602;8.722;2023-07-31T09:30:51;99190.88;;;24.61
78905;BMP280;68291;49.602;8.722;2023-07-31T09:33:55;99200.22;;;24.72
78905;BMP280;68291;49.602;8.722;2023-07-31T09:36:46;99183.13;;;24.83
78905;BMP280;68291;49.602;8.722;2023-07-31T09:39:47;99186.44;;;24.93
78905;BMP280;68291;49.602;8.722;2023-07-31T09:42:35;99202.69;;;25.20
78905;BMP280;68291;49.602;8.722;2023-07-31T09:45:36;99198.53;;;25.34
78905;BMP280;68291;49.602;8.722;2023-07-31T09:48:26;99179.75;;;25.37
78905;BMP280;68291;49.602;8.722;2023-07-31T09:51:13;99167.31;;;25.53
78905;BMP280;68291;49.602;8.722;2023-07-31T09:53:53;99167.63;;;25.74
78905;BMP280;68291;49.602;8.722;2023-07-31T09:56:33;99156.69;;;25.84
78905;BMP280;68291;49.602;8.722;2023-07-31T09:59:20;99150.47;;;26.00
78905;BMP280;68291;49.602;8.722;2023-07-31T10:02:15;99153.53;;;26.11
78905;BMP280;68291;49.602;8.722;2023-07-31T10:05:15;99149.25;;;26.18
78905;BMP280;68291;49.602;8.722;2023-07-31T10:07:54;99145.88;;;26.24
78905;BMP280;68291;49.602;8.722;2023-07-31T10:10:31;99152.88;;;26.17
78905;BMP280;68291;49.602;8.722;2023-07-31T10:13:17;99150.00;;;25.96
78905;BMP280;68291;49.602;8.722;2023-07-31T10:16:07;99157.88;;;25.74
78905;BMP280;68291;49.602;8.722;2023-07-31T10:19:06;99161.41;;;25.59
78905;BMP280;68291;49.602;8.722;2023-07-31T10:21:55;99151.03;;;25.49
78905;BMP280;68291;49.602;8.722;2023-07-31T10:24:44;99148.56;;;25.48
78905;BMP280;68291;49.602;8.722;2023-07-31T10:27:23;99137.66;;;25.51
78905;BMP280;68291;49.602;8.722;2023-07-31T10:30:17;99144.13;;;25.56
78905;BMP280;68291;49.602;8.722;2023-07-31T10:33:09;99140.81;;;25.62
78905;BMP280;68291;49.602;8.722;2023-07-31T10:36:13;99125.94;;;25.53
78905;BMP280;68291;49.602;8.722;2023-07-31T10:38:51;99130.84;;;25.72
78905;BMP280;68291;49.602;8.722;2023-07-31T10:41:37;99116.00;;;26.01
78905;BMP280;68291;49.602;8.722;2023-07-31T10:44:20;99123.66;;;26.18
78905;BMP280;68291;49.602;8.722;2023-07-31T10:47:04;99130.22;;;26.45
78905;BMP280;68291;49.602;8.722;2023-07-31T10:50:20;99121.44;;;26.66
78905;BMP280;68291;49.602;8.722;2023-07-31T10:52:59;99116.09;;;26.74
78905;BMP280;68291;49.602;8.722;2023-07-31T10:55:42;99121.72;;;26.71
78905;BMP280;68291;49.602;8.722;2023-07-31T10:58:22;99126.19;;;26.71
78905;BMP280;68291;49.602;8.722;2023-07-31T11:01:10;99129.00;;;26.69
78905;BMP280;68291;49.602;8.722;2023-07-31T11:04:12;99132.59;;;26.76
78905;BMP280;68291;49.602;8.722;2023-07-31T11:06:58;99126.56;;;26.68
78905;BMP280;68291;49.602;8.722;2023-07-31T11:09:31;99122.00;;;26.62
78905;BMP280;68291;49.602;8.722;2023-07-31T11:12:13;99129.16;;;26.53
78905;BMP280;68291;49.602;8.722;2023-07-31T11:14:57;99112.59;;;26.59
78905;BMP280;68291;49.602;8.722;2023-07-31T11:17:50;99114.53;;;26.65
78905;BMP280;68291;49.602;8.722;2023-07-31T11:20:44;99108.25;;;26.66
78905;BMP280;68291;49.602;8.722;2023-07-31T11:23:38;99109.91;;;26.67
78905;BMP280;68291;49.602;8.722;2023-07-31T11:26:28;99105.84;;;26.79
78905;BMP280;68291;49.602;8.722;2023-07-31T11:29:28;99090.75;;;27.02
78905;BMP280;68291;49.602;8.722;2023-07-31T11:32:18;99092.75;;;27.00
78905;BMP280;68291;49.602;8.722;2023-07-31T11:35:13;99092.44;;;26.95
78905;BMP280;68291;49.602;8.722;2023-07-31T11:37:54;99096.66;;;27.04
78905;BMP280;68291;49.602;8.722;2023-07-31T11:40:27;99094.09;;;27.10
78905;BMP280;68291;49.602;8.722;2023-07-31T11:43:07;99103.84;;;27.10
78905;BMP280;68291;49.602;8.722;2023-07-31T11:45:50;99101.22;;;26.95
78905;BMP280;68291;49.602;8.722;2023-07-31T11:48:25;99096.19;;;26.86
78905;BMP280;68291;49.602;8.722;2023-07-31T11:51:11;99094.31;;;26.72
78905;BMP280;68291;49.602;8.722;2023-07-31T11:53:56;99082.47;;;26.68
78905;BMP280;68291;49.602;8.722;2023-07-31T11:56:47;99075.72;;;26.66
78905;BMP280;68291;49.602;8.722;2023-07-31T11:59:39;99082.63;;;26.67
78905;BMP280;68291;49.602;8.722;2023-07-31T12:02:35;99081.81;;;26.66
78905;BMP280;68291;49.602;8.722;2023-07-31T12:05:31;99080.28;;;26.57
78905;BMP280;68291;49.602;8.722;2023-07-31T12:08:26;99077.34;;;26.52
78905;BMP280;68291;49.602;8.722;2023-07-31T12:11:08;99071.59;;;26.49
78905;BMP280;68291;49.602;8.722;2023-07-31T12:13:52;99064.25;;;26.22
78905;BMP280;68291;49.602;8.722;2023-07-31T12:16:26;99073.00;;;26.23
78905;BMP280;68291;49.602;8.722;2023-07-31T12:19:20;99063.47;;;26.14
78905;BMP280;68291;49.602;8.722;2023-07-31T12:21:59;99056.19;;;26.16
78905;BMP280;68291;49.602;8.722;2023-07-31T12:24:47;99065.09;;;26.15
78905;BMP280;68291;49.602;8.722;2023-07-31T12:27:34;99056.38;;;26.14
78905;BMP280;68291;49.602;8.722;2023-07-31T12:30:34;99049.25;;;26.15
78905;BMP280;68291;49.602;8.722;2023-07-31T12:33:19;99035.03;;;26.24
78905;BMP280;68291;49.602;8.722;2023-07-31T12:36:10;99046.09;;;26.42
78905;BMP280;68291;49.602;8.722;2023-07-31T12:38:52;99032.16;;;26.48
78905;BMP280;68291;49.602;8.722;2023-07-31T12:41:31;99025.78;;;26.56
78905;BMP280;68291;49.602;8.722;2023-07-31T12:44:13;99030.66;;;26.67
78905;BMP280;68291;49.602;8.722;2023-07-31T12:47:08;99025.25;;;26.75
78905;BMP280;68291;49.602;8.722;2023-07-31T12:49:45;99017.72;;;26.72
78905;BMP280;68291;49.602;8.722;2023-07-31T12:52:21;99026.53;;;26.65
78905;BMP280;68291;49.602;8.722;2023-07-31T12:55:00;99014.97;;;26.51
78905;BMP280;68291;49.602;8.722;2023-07-31T12:58:02;99029.81;;;26.52
78905;BMP280;68291;49.602;8.722;2023-07-31T13:00:40;99020.94;;;26.46
78905;BMP280;68291;49.602;8.722;2023-07-31T13:03:11;99025.03;;;26.34
78905;BMP280;68291;49.602;8.722;2023-07-31T13:05:44;99015.56;;;26.25
78905;BMP280;68291;49.602;8.722;2023-07-31T13:08:33;99019.25;;;26.16
78905;BMP280;68291;49.602;8.722;2023-07-31T13:11:13;99016.09;;;26.20
78905;BMP280;68291;49.602;8.722;2023-07-31T13:13:51;99018.53;;;26.22
78905;BMP280;68291;49.602;8.722;2023-07-31T13:16:24;99013.72;;;26.25
78905;BMP280;68291;49.602;8.722;2023-07-31T13:19:06;99001.13;;;26.35
78905;BMP280;68291;49.602;8.722;2023-07-31T13:22:08;99002.94;;;26.49
78905;BMP280;68291;49.602;8.722;2023-07-31T13:25:08;98997.09;;;26.53
78905;BMP280;68291;49.602;8.722;2023-07-31T13:28:05;98999.38;;;26.56
78905;BMP280;68291;49.602;8.722;2023-07-31T13:30:53;98997.28;;;26.52
78905;BMP280;68291;49.602;8.722;2023-07-31T13:33:44;98994.00;;;26.36
78905;BMP280;68291;49.602;8.722;2023-07-31T13:36:29;98986.97;;;26.28
78905;BMP280;68291;49.602;8.722;2023-07-31T13:41:49;98978.88;;;26.30
78905;BMP280;68291;49.602;8.722;2023-07-31T13:44:28;98980.59;;;26.23
78905;BMP280;68291;49.602;8.722;2023-07-31T13:47:16;98973.00;;;26.20
78905;BMP280;68291;49.602;8.722;2023-07-31T13:49:57;98979.34;;;26.11
78905;BMP280;68291;49.602;8.722;2023-07-31T13:52:41;98978.09;;;26.07
78905;BMP280;68291;49.602;8.722;2023-07-31T13:55:21;98976.06;;;26.09
78905;BMP280;68291;49.602;8.722;2023-07-31T13:58:11;98977.34;;;26.13
78905;BMP280;68291;49.602;8.722;2023-07-31T14:01:08;98969.25;;;26.14
78905;BMP280;68291;49.602;8.722;2023-07-31T14:04:03;98972.44;;;26.10
78905;BMP280;68291;49.602;8.722;2023-07-31T14:06:51;98961.78;;;26.04
78905;BMP280;68291;49.602;8.722;2023-07-31T14:09:31;98979.13;;;25.98
78905;BMP280;68291;49.602;8.722;2023-07-31T14:12:12;98973.75;;;25.92
78905;BMP280;68291;49.602;8.722;2023-07-31T14:15:08;98980.09;;;25.83
78905;BMP280;68291;49.602;8.722;2023-07-31T14:18:04;98966.50;;;25.72
78905;BMP280;68291;49.602;8.722;2023-07-31T14:21:00;98969.84;;;25.66
78905;BMP280;68291;49.602;8.722;2023-07-31T14:23:43;98967.19;;;25.66
78905;BMP280;68291;49.602;8.722;2023-07-31T14:26:25;98970.84;;;25.65
78905;BMP280;68291;49.602;8.722;2023-07-31T14:29:20;98962.63;;;25.60
78905;BMP280;68291;49.602;8.722;2023-07-31T14:32:11;98956.09;;;25.56
78905;BMP280;68291;49.602;8.722;2023-07-31T14:34:49;98947.97;;;25.57
78905;BMP280;68291;49.602;8.722;2023-07-31T14:37:19;98942.16;;;25.62
78905;BMP280;68291;49.602;8.722;2023-07-31T14:40:13;98934.25;;;25.62
78905;BMP280;68291;49.602;8.722;2023-07-31T14:43:07;98931.94;;;25.67
78905;BMP280;68291;49.602;8.722;2023-07-31T14:45:55;98924.31;;;25.72
78905;BMP280;68291;49.602;8.722;2023-07-31T14:48:45;98913.69;;;25.80
78905;BMP280;68291;49.602;8.722;2023-07-31T14:51:40;98917.59;;;25.83
78905;BMP280;68291;49.602;8.722;2023-07-31T14:54:26;98912.78;;;25.87
78905;BMP280;68291;49.602;8.722;2023-07-31T14:57:10;98900.06;;;25.90
78905;BMP280;68291;49.602;8.722;2023-07-31T15:00:00;98905.63;;;25.95
78905;BMP280;68291;49.602;8.722;2023-07-31T15:02:44;98918.00;;;26.09
78905;BMP280;68291;49.602;8.722;2023-07-31T15:05:36;98900.53;;;26.08
78905;BMP280;68291;49.602;8.722;2023-07-31T15:08:23;98904.47;;;26.12
78905;BMP280;68291;49.602;8.722;2023-07-31T15:10:59;98896.19;;;26.15
78905;BMP280;68291;49.602;8.722;2023-07-31T15:13:36;98901.16;;;26.18
78905;BMP280;68291;49.602;8.722;2023-07-31T15:16:08;98886.56;;;26.22
78905;BMP280;68291;49.602;8.722;2023-07-31T15:18:47;98895.69;;;26.34
78905;BMP280;68291;49.602;8.722;2023-07-31T15:21:51;98899.84;;;26.43
78905;BMP280;68291;49.602;8.722;2023-07-31T15:24:28;98899.78;;;26.50
78905;BMP280;68291;49.602;8.722;2023-07-31T15:27:15;98902.59;;;26.49
78905;BMP280;68291;49.602;8.722;2023-07-31T15:29:56;98907.94;;;26.41
78905;BMP280;68291;49.602;8.722;2023-07-31T15:32:49;98918.41;;;26.35
78905;BMP280;68291;49.602;8.722;2023-07-31T15:35:39;98898.97;;;26.36
78905;BMP280;68291;49.602;8.722;2023-07-31T15:38:37;98903.94;;;26.45
78905;BMP280;68291;49.602;8.722;2023-07-31T15:41:09;98905.69;;;26.52
78905;BMP280;68291;49.602;8.722;2023-07-31T15:44:14;98903.69;;;26.54
78905;BMP280;68291;49.602;8.722;2023-07-31T15:47:00;98911.16;;;26.51
78905;BMP280;68291;49.602;8.722;2023-07-31T15:49:40;98907.41;;;26.46
78905;BMP280;68291;49.602;8.722;2023-07-31T15:52:30;98893.94;;;26.26
78905;BMP280;68291;49.602;8.722;2023-07-31T15:55:10;98897.22;;;26.28
78905;BMP280;68291;49.602;8.722;2023-07-31T15:57:56;98902.22;;;26.23
78905;BMP280;68291;49.602;8.722;2023-07-31T16:00:35;98908.53;;;26.22
78905;BMP280;68291;49.602;8.722;2023-07-31T16:03:15;98890.69;;;26.24